createdAt,value
2018-11-22T00:00:34.186Z,4.30
2018-11-22T00:06:22.950Z,4.20
2018-11-22T00:12:23.210Z,3.80
2018-11-22T00:18:27.124Z,3.40
2018-11-22T00:24:29.396Z,3.70
2018-11-22T00:30:31.987Z,3.90
2018-11-22T00:36:44.753Z,3.70
2018-11-22T00:42:58.374Z,3.60
2018-11-22T00:49:12.395Z,3.50
2018-11-22T00:55:16.135Z,3.40
2018-11-22T01:01:16.553Z,3.70
2018-11-22T01:06:54.509Z,4.20
2018-11-22T01:12:56.174Z,4.30
2018-11-22T01:18:55.735Z,4.40
2018-11-22T01:24:57.090Z,4.50
2018-11-22T01:30:57.952Z,4.60
2018-11-22T01:36:59.465Z,4.20
2018-11-22T01:43:04.077Z,4.30
2018-11-22T01:49:05.656Z,4.50
2018-11-22T01:55:09.547Z,4.00
2018-11-22T02:01:10.002Z,4.10
2018-11-22T02:07:01.446Z,4.10
2018-11-22T02:13:05.927Z,3.30
2018-11-22T02:19:06.566Z,2.70
2018-11-22T02:25:10.097Z,2.60
2018-11-22T02:30:54.513Z,2.80
2018-11-22T02:36:58.177Z,2.80
2018-11-22T02:42:40.503Z,3.20
2018-11-22T02:48:22.836Z,3.70
2018-11-22T02:54:23.487Z,4.20
2018-11-22T03:00:45.235Z,4.30
2018-11-22T03:06:21.566Z,4.50
2018-11-22T03:12:12.325Z,4.30
2018-11-22T03:18:12.773Z,4.50
2018-11-22T03:24:15.197Z,4.60
2018-11-22T03:30:16.947Z,4.90
2018-11-22T03:36:19.368Z,4.50
2018-11-22T03:42:18.926Z,4.30
2018-11-22T03:48:19.495Z,4.50
2018-11-22T03:54:20.390Z,4.50
2018-11-22T04:00:24.553Z,4.20
2018-11-22T04:12:02.922Z,4.50
2018-11-22T04:18:03.244Z,4.40
2018-11-22T04:24:09.940Z,4.50
2018-11-22T04:30:24.345Z,4.90
2018-11-22T04:36:07.899Z,4.60
2018-11-22T04:41:50.396Z,4.60
2018-11-22T04:47:53.888Z,4.50
2018-11-22T04:53:53.757Z,4.60
2018-11-22T04:59:53.827Z,4.40
2018-11-22T05:17:45.629Z,4.50
2018-11-22T05:23:47.298Z,4.80
2018-11-22T05:29:50.750Z,4.60
2018-11-22T05:35:51.481Z,4.70
2018-11-22T05:41:55.312Z,4.80
2018-11-22T05:47:55.757Z,4.90
2018-11-22T05:53:57.437Z,4.50
2018-11-22T05:59:57.786Z,4.30
2018-11-22T06:06:02.438Z,4.20
2018-11-22T06:11:39.567Z,4.30
2018-11-22T06:17:45.267Z,4.20
2018-11-22T06:23:45.794Z,4.60
2018-11-22T06:29:44.473Z,5.30
2018-11-22T06:35:29.879Z,5.10
2018-11-22T06:47:35.059Z,5.60
2018-11-22T06:53:34.586Z,6.10
2018-11-22T06:59:36.195Z,5.70
2018-11-22T07:05:37.852Z,6.10
2018-11-22T07:11:09.999Z,5.70
2018-11-22T07:16:47.171Z,6.00
2018-11-22T07:22:49.230Z,6.00
2018-11-22T07:28:49.795Z,6.10
2018-11-22T07:34:53.026Z,5.70
2018-11-22T07:40:54.676Z,6.20
2018-11-22T07:46:58.022Z,6.00
2018-11-22T07:58:59.718Z,6.10
2018-11-22T08:11:02.578Z,6.30
2018-11-22T08:16:51.133Z,6.00
2018-11-22T08:22:32.408Z,6.20
2018-11-22T08:28:34.047Z,6.80
2018-11-22T08:34:22.301Z,7.40
2018-11-22T08:46:27.619Z,8.20
2018-11-22T08:52:28.256Z,8.70
2018-11-22T08:58:31.789Z,9.30
2018-11-22T09:10:34.814Z,10.20
2018-11-22T09:16:12.271Z,10.50
2018-11-22T09:22:12.777Z,10.40
2018-11-22T09:28:12.400Z,10.60
2018-11-22T09:34:16.072Z,10.70
2018-11-22T09:40:17.402Z,10.70
2018-11-22T09:46:20.178Z,11.00
2018-11-22T09:58:21.356Z,9.90
2018-11-22T10:04:20.845Z,10.30
2018-11-22T10:10:22.458Z,9.50
2018-11-22T10:19:53.095Z,10.00
2018-11-22T10:25:43.613Z,9.80
2018-11-22T10:31:38.164Z,9.50
2018-11-22T10:37:50.858Z,9.90
2018-11-22T10:44:03.472Z,10.10
2018-11-22T10:50:22.221Z,10.30
2018-11-22T10:56:20.771Z,10.40
2018-11-22T11:02:38.548Z,10.70
2018-11-22T11:08:39.129Z,10.60
2018-11-22T11:14:43.690Z,10.50
2018-11-22T11:20:33.153Z,10.20
2018-11-22T11:32:35.301Z,10.20
2018-11-22T11:38:21.733Z,10.10
2018-11-22T11:44:20.281Z,10.00
2018-11-22T11:50:23.881Z,9.90
2018-11-22T11:56:24.451Z,9.80
2018-11-22T12:02:25.224Z,9.70
2018-11-22T12:08:27.612Z,9.60
2018-11-22T12:14:31.139Z,9.50
2018-11-22T12:20:29.761Z,9.50
2018-11-22T12:26:05.081Z,9.40
2018-11-22T12:38:36.215Z,8.80
2018-11-22T12:44:50.182Z,8.80
2018-11-22T12:50:49.794Z,8.90
2018-11-22T12:56:52.407Z,8.70
2018-11-22T13:02:54.966Z,8.60
2018-11-22T13:08:56.490Z,8.60
2018-11-22T13:15:17.312Z,8.60
2018-11-22T13:20:47.868Z,8.50
2018-11-22T13:32:49.687Z,8.10
2018-11-22T14:13:56.244Z,7.80
2018-11-22T14:33:39.924Z,7.90
2018-11-22T14:53:19.601Z,7.50
2018-11-22T15:12:47.098Z,7.30
2018-11-22T15:32:31.897Z,7.10
2018-11-22T15:52:22.718Z,7.20
2018-11-22T16:12:13.876Z,6.60
2018-11-22T16:32:01.268Z,6.40
2018-11-22T16:51:48.922Z,6.60
2018-11-22T17:11:34.138Z,6.60
2018-11-22T17:31:19.502Z,6.30
2018-11-22T17:51:03.217Z,6.40
2018-11-22T18:10:42.897Z,6.00
2018-11-22T18:30:30.368Z,6.00
2018-11-22T19:10:05.164Z,6.20
2018-11-22T19:29:44.857Z,6.20
2018-11-22T20:09:23.373Z,5.90
2018-11-22T20:29:08.421Z,6.10
2018-11-22T20:48:59.942Z,6.30
2018-11-22T21:28:33.333Z,6.30
2018-11-22T21:48:10.811Z,7.00
2018-11-22T22:27:45.582Z,6.90
2018-11-22T22:47:34.760Z,6.90
2018-11-22T23:07:25.884Z,6.90
2018-11-22T23:27:13.320Z,6.60
